Redoak, Ohio
Current Conditions -  °F | °C
As of 4:55 PM on Monday 20 Oct 2014 (Local Time) from KFGX Reporting Station
Overcast Overcast  
Wind Chill: 59°   Ceiling: 6000
Heat Index: 59°   Visibility: 10mi
Dew Point: 46°   Wind: 10mph
Humidity: 62%   Direction: 220°SW
Pressure: 29.9"   Gusts: NA
Location:  38.776°N, 83.7985°W
Report Text: KFGX 202055Z AUTO 22009KT 10SM OVC060 15/08 A2990 RMK AO2 T01510078
Loading
Personal Weather Stations






























Interactive Weather Map New forecast layout! Learn more

10-Day Weather Forecast

Advertisements
Track Severe Weather on mobile